Aérodrome :
LOGIN :

S'inscrire | Disclaimer

   EN    FR    IT 

 










Légende :    VFR   VFR Marginal   IFR   IFR Intensif   IFR Très Intensif
Visi : 
Plafond : 
>= 8 km
>= 3000ft
5 à 8 km
1000 à 3000 ft
1500m à 5 km
500 à 1000 ft
800 à 1500m
200 à 500 ft
< 800m
< 200 ft
Symboles :   Orages  Brouillard  Fortes neiges  Fortes précipitations  Vent > 20 kt
SIGMETs :   Divers  Orages  Givrage  Turbulence  Onde Orograph.  Cendres Volcan.







- Altitude de l'aérodrome : 796 ft
- Code IATA : SYT
- Voir les cartes d'approche


LFLN - Saint-Yan

DERNIER METAR :
  • 261830Z AUTO 31009KT CAVOK 20/11 Q1015 NOSIG

METARs EXPIRÉS :
  • 261800Z AUTO 31004KT CAVOK 19/11 Q1015 NOSIG
  • 261730Z AUTO 32009KT 9999 FEW049 20/10 Q1015 NOSIG
  • 261700Z AUTO 30009KT 260V320 CAVOK 22/11 Q1015 NOSIG
  • 261630Z AUTO 30008KT CAVOK 22/10 Q1016 NOSIG
  • 261600Z AUTO 30011KT 270V330 CAVOK 22/11 Q1016 NOSIG

TAF TAF LFLN
Valide du 26 à 18h jusqu'au 27 à 03h UTC


261700Z 2618/2703 30006KT CAVOK
TEMPO 2621/2703 BKN033
Pas de NOTAMs connus pour ce terrain.
2 SIGMETs publiés pour la FIR Marseille (LFMM) :
 
Turbulence forte
LFMM SIGMET 6 VALID 261900/262100 LFPW
LFMM MARSEILLE FIR/UIR SEV TURB FCST WI N4145 E00430 - N4200 E00430 - N4215 E00345 - N4345 E00445 - N4530 E00645 - N4145 E00430 FL260/340 STNR WKN=
Turbulence forte
LFMM SIGMET 5 VALID 261500/261900 LFPW
LFMM MARSEILLE FIR/UIR SEV TURB FCST WI N3900 E00630 - N3900 E00430 - N4200 E00430 - N4200 E00415 - N4430 E00445 - N4630 E00645 - N4630 E00700 - N4545 E00700 - N4315 E00530 - N3900 E00630 FL260/340 STNR NC=



MET'MAP, la Météo Aéronautique d'un coup d'oeil ! - Copyright ORBIFLY Décembre 2007 - Disclaimer

ORBIFLY MET'MAP TEAM :

Programmation & Développement : Alexandra Zaïnal
Conception & Développement : Baudouin d'Aumeries
Co-Programmation & Développement : Marc-Olivier Méhu
Soutien technique & logistique : Manuel Goepfert

Contact : metmap@orbifly.com




SOURCES & CREDITS :

   NOAA